sensor_id;sensor_type;location;lat;lon;timestamp;P1;durP1;ratioP1;P2;durP2;ratioP2
77214;SDS011;66210;53.282;9.864;2023-02-28T00:01:28;9.85;;;5.13;;
77214;SDS011;66210;53.282;9.864;2023-02-28T00:03:56;13.52;;;5.07;;
77214;SDS011;66210;53.282;9.864;2023-02-28T00:06:23;12.23;;;4.97;;
77214;SDS011;66210;53.282;9.864;2023-02-28T00:08:50;11.05;;;4.28;;
77214;SDS011;66210;53.282;9.864;2023-02-28T00:11:17;10.10;;;4.40;;
77214;SDS011;66210;53.282;9.864;2023-02-28T00:13:44;10.57;;;4.68;;
77214;SDS011;66210;53.282;9.864;2023-02-28T00:16:14;11.05;;;3.97;;
77214;SDS011;66210;53.282;9.864;2023-02-28T00:18:43;9.73;;;4.22;;
77214;SDS011;66210;53.282;9.864;2023-02-28T00:21:10;9.90;;;3.95;;
77214;SDS011;66210;53.282;9.864;2023-02-28T00:23:37;6.72;;;3.33;;
77214;SDS011;66210;53.282;9.864;2023-02-28T00:26:04;7.28;;;3.78;;
77214;SDS011;66210;53.282;9.864;2023-02-28T00:28:31;8.02;;;3.17;;
77214;SDS011;66210;53.282;9.864;2023-02-28T00:30:58;10.10;;;3.67;;
77214;SDS011;66210;53.282;9.864;2023-02-28T00:33:26;8.35;;;3.80;;
77214;SDS011;66210;53.282;9.864;2023-02-28T00:36:00;7.30;;;3.47;;
77214;SDS011;66210;53.282;9.864;2023-02-28T00:38:32;6.57;;;3.63;;
77214;SDS011;66210;53.282;9.864;2023-02-28T00:40:59;8.77;;;3.58;;
77214;SDS011;66210;53.282;9.864;2023-02-28T00:43:31;6.25;;;3.13;;
77214;SDS011;66210;53.282;9.864;2023-02-28T00:45:59;5.10;;;2.97;;
77214;SDS011;66210;53.282;9.864;2023-02-28T00:48:26;7.97;;;2.85;;
77214;SDS011;66210;53.282;9.864;2023-02-28T00:50:52;4.55;;;2.17;;
77214;SDS011;66210;53.282;9.864;2023-02-28T00:53:20;4.15;;;2.63;;
77214;SDS011;66210;53.282;9.864;2023-02-28T00:55:47;7.72;;;2.38;;
77214;SDS011;66210;53.282;9.864;2023-02-28T00:58:14;5.25;;;2.65;;
77214;SDS011;66210;53.282;9.864;2023-02-28T01:00:41;3.78;;;2.05;;
77214;SDS011;66210;53.282;9.864;2023-02-28T01:03:07;4.70;;;2.08;;
77214;SDS011;66210;53.282;9.864;2023-02-28T01:05:34;6.57;;;2.17;;
77214;SDS011;66210;53.282;9.864;2023-02-28T01:08:01;8.63;;;2.63;;
77214;SDS011;66210;53.282;9.864;2023-02-28T01:10:27;8.98;;;2.50;;
77214;SDS011;66210;53.282;9.864;2023-02-28T01:12:57;5.55;;;2.33;;
77214;SDS011;66210;53.282;9.864;2023-02-28T01:15:24;7.20;;;2.78;;
77214;SDS011;66210;53.282;9.864;2023-02-28T01:17:51;4.32;;;2.20;;
77214;SDS011;66210;53.282;9.864;2023-02-28T01:20:18;5.80;;;2.60;;
77214;SDS011;66210;53.282;9.864;2023-02-28T01:22:45;5.93;;;2.28;;
77214;SDS011;66210;53.282;9.864;2023-02-28T01:25:12;6.85;;;2.88;;
77214;SDS011;66210;53.282;9.864;2023-02-28T01:27:39;6.85;;;2.55;;
77214;SDS011;66210;53.282;9.864;2023-02-28T01:30:09;5.63;;;2.33;;
77214;SDS011;66210;53.282;9.864;2023-02-28T01:32:36;5.20;;;2.33;;
77214;SDS011;66210;53.282;9.864;2023-02-28T01:35:03;4.60;;;2.25;;
77214;SDS011;66210;53.282;9.864;2023-02-28T01:37:30;3.58;;;2.20;;
77214;SDS011;66210;53.282;9.864;2023-02-28T01:39:56;4.25;;;2.45;;
77214;SDS011;66210;53.282;9.864;2023-02-28T01:42:23;9.10;;;2.60;;
77214;SDS011;66210;53.282;9.864;2023-02-28T01:45:16;7.40;;;2.63;;
77214;SDS011;66210;53.282;9.864;2023-02-28T01:47:50;6.43;;;2.88;;
77214;SDS011;66210;53.282;9.864;2023-02-28T01:50:19;6.38;;;2.83;;
77214;SDS011;66210;53.282;9.864;2023-02-28T01:52:49;5.18;;;2.60;;
77214;SDS011;66210;53.282;9.864;2023-02-28T01:55:18;5.60;;;3.03;;
77214;SDS011;66210;53.282;9.864;2023-02-28T01:58:05;6.35;;;3.00;;
77214;SDS011;66210;53.282;9.864;2023-02-28T02:00:51;5.47;;;3.17;;
77214;SDS011;66210;53.282;9.864;2023-02-28T02:03:36;8.27;;;3.03;;
77214;SDS011;66210;53.282;9.864;2023-02-28T02:06:03;6.53;;;2.85;;
77214;SDS011;66210;53.282;9.864;2023-02-28T02:08:30;4.70;;;2.80;;
77214;SDS011;66210;53.282;9.864;2023-02-28T02:11:02;5.30;;;3.20;;
77214;SDS011;66210;53.282;9.864;2023-02-28T02:13:33;6.38;;;2.72;;
77214;SDS011;66210;53.282;9.864;2023-02-28T02:16:18;4.25;;;2.70;;
77214;SDS011;66210;53.282;9.864;2023-02-28T02:18:53;8.18;;;2.58;;
77214;SDS011;66210;53.282;9.864;2023-02-28T02:30:11;8.23;;;3.28;;
77214;SDS011;66210;53.282;9.864;2023-02-28T02:32:56;6.22;;;2.90;;
77214;SDS011;66210;53.282;9.864;2023-02-28T02:41:50;4.88;;;2.20;;
77214;SDS011;66210;53.282;9.864;2023-02-28T02:44:24;5.03;;;2.70;;
77214;SDS011;66210;53.282;9.864;2023-02-28T02:46:57;7.32;;;2.63;;
77214;SDS011;66210;53.282;9.864;2023-02-28T02:49:30;3.88;;;2.20;;
77214;SDS011;66210;53.282;9.864;2023-02-28T02:52:02;6.13;;;2.45;;
77214;SDS011;66210;53.282;9.864;2023-02-28T02:57:26;4.47;;;2.70;;
77214;SDS011;66210;53.282;9.864;2023-02-28T02:59:59;4.47;;;2.47;;
77214;SDS011;66210;53.282;9.864;2023-02-28T03:02:28;5.65;;;2.60;;
77214;SDS011;66210;53.282;9.864;2023-02-28T03:07:50;4.25;;;2.45;;
77214;SDS011;66210;53.282;9.864;2023-02-28T03:10:27;7.57;;;3.05;;
77214;SDS011;66210;53.282;9.864;2023-02-28T03:12:58;4.55;;;2.40;;
77214;SDS011;66210;53.282;9.864;2023-02-28T03:15:36;5.30;;;2.70;;
77214;SDS011;66210;53.282;9.864;2023-02-28T03:18:25;5.93;;;2.25;;
77214;SDS011;66210;53.282;9.864;2023-02-28T03:21:23;4.45;;;2.13;;
77214;SDS011;66210;53.282;9.864;2023-02-28T03:24:16;6.35;;;2.63;;
77214;SDS011;66210;53.282;9.864;2023-02-28T03:26:52;5.97;;;2.67;;
77214;SDS011;66210;53.282;9.864;2023-02-28T03:29:28;4.65;;;2.80;;
77214;SDS011;66210;53.282;9.864;2023-02-28T03:35:00;4.63;;;2.13;;
77214;SDS011;66210;53.282;9.864;2023-02-28T03:37:34;5.72;;;2.60;;
77214;SDS011;66210;53.282;9.864;2023-02-28T03:40:05;11.32;;;2.28;;
77214;SDS011;66210;53.282;9.864;2023-02-28T03:42:35;6.82;;;2.53;;
77214;SDS011;66210;53.282;9.864;2023-02-28T03:45:05;5.07;;;2.35;;
77214;SDS011;66210;53.282;9.864;2023-02-28T03:47:39;3.45;;;2.35;;
77214;SDS011;66210;53.282;9.864;2023-02-28T03:55:39;4.55;;;2.47;;
77214;SDS011;66210;53.282;9.864;2023-02-28T03:58:22;5.60;;;2.15;;
77214;SDS011;66210;53.282;9.864;2023-02-28T04:00:58;4.32;;;1.98;;
77214;SDS011;66210;53.282;9.864;2023-02-28T04:03:37;3.78;;;2.28;;
77214;SDS011;66210;53.282;9.864;2023-02-28T04:06:05;3.42;;;2.28;;
77214;SDS011;66210;53.282;9.864;2023-02-28T04:08:34;6.85;;;2.28;;
77214;SDS011;66210;53.282;9.864;2023-02-28T04:11:03;5.07;;;2.63;;
77214;SDS011;66210;53.282;9.864;2023-02-28T04:13:33;5.75;;;2.10;;
77214;SDS011;66210;53.282;9.864;2023-02-28T04:16:00;5.03;;;2.28;;
77214;SDS011;66210;53.282;9.864;2023-02-28T04:18:27;5.43;;;2.20;;
77214;SDS011;66210;53.282;9.864;2023-02-28T04:20:53;4.63;;;2.20;;
77214;SDS011;66210;53.282;9.864;2023-02-28T04:23:20;7.78;;;2.53;;
77214;SDS011;66210;53.282;9.864;2023-02-28T04:25:47;4.82;;;2.30;;
77214;SDS011;66210;53.282;9.864;2023-02-28T04:28:13;4.30;;;2.13;;
77214;SDS011;66210;53.282;9.864;2023-02-28T04:30:40;4.40;;;2.40;;
77214;SDS011;66210;53.282;9.864;2023-02-28T04:33:07;4.25;;;2.42;;
77214;SDS011;66210;53.282;9.864;2023-02-28T04:35:33;6.70;;;2.50;;
77214;SDS011;66210;53.282;9.864;2023-02-28T04:38:00;3.33;;;2.13;;
77214;SDS011;66210;53.282;9.864;2023-02-28T04:40:27;5.40;;;1.90;;
77214;SDS011;66210;53.282;9.864;2023-02-28T04:42:54;4.57;;;2.30;;
77214;SDS011;66210;53.282;9.864;2023-02-28T04:45:20;4.57;;;2.08;;
77214;SDS011;66210;53.282;9.864;2023-02-28T04:47:47;4.80;;;1.92;;
77214;SDS011;66210;53.282;9.864;2023-02-28T04:50:14;4.20;;;2.22;;
77214;SDS011;66210;53.282;9.864;2023-02-28T04:52:41;5.55;;;2.35;;
77214;SDS011;66210;53.282;9.864;2023-02-28T04:55:07;4.55;;;2.10;;
77214;SDS011;66210;53.282;9.864;2023-02-28T04:57:34;4.07;;;1.98;;
77214;SDS011;66210;53.282;9.864;2023-02-28T05:00:01;2.42;;;1.85;;
77214;SDS011;66210;53.282;9.864;2023-02-28T05:02:34;3.03;;;2.08;;
77214;SDS011;66210;53.282;9.864;2023-02-28T05:05:01;5.50;;;1.95;;
77214;SDS011;66210;53.282;9.864;2023-02-28T05:07:28;3.83;;;2.00;;
77214;SDS011;66210;53.282;9.864;2023-02-28T05:09:55;3.53;;;2.15;;
77214;SDS011;66210;53.282;9.864;2023-02-28T05:12:22;3.08;;;1.92;;
77214;SDS011;66210;53.282;9.864;2023-02-28T05:14:48;4.82;;;1.73;;
77214;SDS011;66210;53.282;9.864;2023-02-28T05:17:15;5.03;;;1.88;;
77214;SDS011;66210;53.282;9.864;2023-02-28T05:19:42;3.05;;;1.80;;
77214;SDS011;66210;53.282;9.864;2023-02-28T05:22:13;3.63;;;1.70;;
77214;SDS011;66210;53.282;9.864;2023-02-28T05:24:43;3.92;;;1.85;;
77214;SDS011;66210;53.282;9.864;2023-02-28T05:27:09;4.38;;;1.80;;
77214;SDS011;66210;53.282;9.864;2023-02-28T05:29:37;2.42;;;1.60;;
77214;SDS011;66210;53.282;9.864;2023-02-28T05:32:09;4.05;;;1.45;;
77214;SDS011;66210;53.282;9.864;2023-02-28T05:34:40;3.33;;;1.70;;
77214;SDS011;66210;53.282;9.864;2023-02-28T05:37:13;4.15;;;2.17;;
77214;SDS011;66210;53.282;9.864;2023-02-28T05:39:43;3.78;;;1.63;;
77214;SDS011;66210;53.282;9.864;2023-02-28T05:42:09;4.13;;;1.67;;
77214;SDS011;66210;53.282;9.864;2023-02-28T05:44:36;3.55;;;1.77;;
77214;SDS011;66210;53.282;9.864;2023-02-28T05:47:03;3.28;;;1.70;;
77214;SDS011;66210;53.282;9.864;2023-02-28T05:49:30;4.00;;;1.92;;
77214;SDS011;66210;53.282;9.864;2023-02-28T05:51:56;3.15;;;1.50;;
77214;SDS011;66210;53.282;9.864;2023-02-28T05:54:23;6.28;;;2.53;;
77214;SDS011;66210;53.282;9.864;2023-02-28T05:56:50;2.65;;;1.80;;
77214;SDS011;66210;53.282;9.864;2023-02-28T05:59:16;2.55;;;1.52;;
77214;SDS011;66210;53.282;9.864;2023-02-28T06:01:44;2.17;;;1.58;;
77214;SDS011;66210;53.282;9.864;2023-02-28T06:04:15;4.90;;;1.67;;
77214;SDS011;66210;53.282;9.864;2023-02-28T06:06:57;3.08;;;1.60;;
77214;SDS011;66210;53.282;9.864;2023-02-28T06:09:24;2.40;;;1.60;;
77214;SDS011;66210;53.282;9.864;2023-02-28T06:11:51;2.25;;;1.50;;
77214;SDS011;66210;53.282;9.864;2023-02-28T06:14:18;2.42;;;1.50;;
77214;SDS011;66210;53.282;9.864;2023-02-28T06:16:46;2.63;;;1.55;;
77214;SDS011;66210;53.282;9.864;2023-02-28T06:19:13;2.25;;;1.40;;
77214;SDS011;66210;53.282;9.864;2023-02-28T06:21:40;2.13;;;1.40;;
77214;SDS011;66210;53.282;9.864;2023-02-28T06:24:06;2.83;;;1.73;;
77214;SDS011;66210;53.282;9.864;2023-02-28T06:26:34;3.15;;;1.80;;
77214;SDS011;66210;53.282;9.864;2023-02-28T06:29:01;4.10;;;1.30;;
77214;SDS011;66210;53.282;9.864;2023-02-28T06:31:27;1.98;;;1.33;;
77214;SDS011;66210;53.282;9.864;2023-02-28T06:33:55;4.78;;;1.67;;
77214;SDS011;66210;53.282;9.864;2023-02-28T06:36:23;2.22;;;1.40;;
77214;SDS011;66210;53.282;9.864;2023-02-28T06:38:50;1.77;;;1.27;;
77214;SDS011;66210;53.282;9.864;2023-02-28T06:41:24;2.38;;;1.70;;
77214;SDS011;66210;53.282;9.864;2023-02-28T06:43:54;3.05;;;1.40;;
77214;SDS011;66210;53.282;9.864;2023-02-28T06:46:21;1.50;;;1.33;;
77214;SDS011;66210;53.282;9.864;2023-02-28T06:48:48;3.83;;;1.67;;
77214;SDS011;66210;53.282;9.864;2023-02-28T06:51:16;3.00;;;1.55;;
77214;SDS011;66210;53.282;9.864;2023-02-28T06:53:46;3.05;;;1.52;;
77214;SDS011;66210;53.282;9.864;2023-02-28T06:56:14;4.10;;;1.40;;
77214;SDS011;66210;53.282;9.864;2023-02-28T06:58:46;2.15;;;1.95;;
77214;SDS011;66210;53.282;9.864;2023-02-28T07:01:14;6.80;;;2.03;;
77214;SDS011;66210;53.282;9.864;2023-02-28T07:03:41;2.92;;;1.50;;
77214;SDS011;66210;53.282;9.864;2023-02-28T07:06:08;7.90;;;1.73;;
77214;SDS011;66210;53.282;9.864;2023-02-28T07:08:34;3.88;;;1.50;;
77214;SDS011;66210;53.282;9.864;2023-02-28T07:11:02;1.55;;;1.40;;
77214;SDS011;66210;53.282;9.864;2023-02-28T07:13:28;7.32;;;2.15;;
77214;SDS011;66210;53.282;9.864;2023-02-28T07:15:59;3.30;;;1.80;;
77214;SDS011;66210;53.282;9.864;2023-02-28T07:18:27;3.00;;;1.40;;
77214;SDS011;66210;53.282;9.864;2023-02-28T07:20:54;2.13;;;1.60;;
77214;SDS011;66210;53.282;9.864;2023-02-28T07:23:21;2.08;;;1.30;;
77214;SDS011;66210;53.282;9.864;2023-02-28T07:25:49;2.58;;;1.33;;
77214;SDS011;66210;53.282;9.864;2023-02-28T07:28:16;2.17;;;1.73;;
77214;SDS011;66210;53.282;9.864;2023-02-28T07:30:43;1.95;;;1.40;;
77214;SDS011;66210;53.282;9.864;2023-02-28T07:33:09;3.38;;;1.40;;
77214;SDS011;66210;53.282;9.864;2023-02-28T07:35:36;1.70;;;1.50;;
77214;SDS011;66210;53.282;9.864;2023-02-28T07:38:02;3.22;;;1.85;;
77214;SDS011;66210;53.282;9.864;2023-02-28T07:40:29;1.48;;;1.27;;
77214;SDS011;66210;53.282;9.864;2023-02-28T07:42:56;1.42;;;1.25;;
77214;SDS011;66210;53.282;9.864;2023-02-28T07:45:25;1.70;;;1.38;;
77214;SDS011;66210;53.282;9.864;2023-02-28T07:47:52;5.00;;;1.63;;
77214;SDS011;66210;53.282;9.864;2023-02-28T07:50:19;2.92;;;1.60;;
77214;SDS011;66210;53.282;9.864;2023-02-28T07:52:46;2.72;;;1.65;;
77214;SDS011;66210;53.282;9.864;2023-02-28T07:55:12;3.50;;;1.45;;
77214;SDS011;66210;53.282;9.864;2023-02-28T07:57:40;2.83;;;1.60;;
77214;SDS011;66210;53.282;9.864;2023-02-28T08:00:08;3.95;;;1.60;;
77214;SDS011;66210;53.282;9.864;2023-02-28T08:02:36;2.83;;;1.90;;
77214;SDS011;66210;53.282;9.864;2023-02-28T08:05:02;2.58;;;1.90;;
77214;SDS011;66210;53.282;9.864;2023-02-28T08:07:29;4.28;;;1.95;;
77214;SDS011;66210;53.282;9.864;2023-02-28T08:09:56;2.33;;;1.65;;
77214;SDS011;66210;53.282;9.864;2023-02-28T08:12:22;3.80;;;1.70;;
77214;SDS011;66210;53.282;9.864;2023-02-28T08:14:49;7.78;;;2.63;;
77214;SDS011;66210;53.282;9.864;2023-02-28T08:17:15;3.55;;;2.00;;
77214;SDS011;66210;53.282;9.864;2023-02-28T08:19:42;5.82;;;2.38;;
77214;SDS011;66210;53.282;9.864;2023-02-28T08:22:11;5.70;;;1.90;;
77214;SDS011;66210;53.282;9.864;2023-02-28T08:24:38;3.20;;;1.70;;
77214;SDS011;66210;53.282;9.864;2023-02-28T08:27:05;2.85;;;1.65;;
77214;SDS011;66210;53.282;9.864;2023-02-28T08:29:31;3.25;;;1.98;;
77214;SDS011;66210;53.282;9.864;2023-02-28T08:31:58;3.78;;;1.92;;
77214;SDS011;66210;53.282;9.864;2023-02-28T08:34:25;3.17;;;2.03;;
77214;SDS011;66210;53.282;9.864;2023-02-28T08:36:51;3.17;;;1.98;;
77214;SDS011;66210;53.282;9.864;2023-02-28T08:39:19;6.70;;;2.17;;
77214;SDS011;66210;53.282;9.864;2023-02-28T08:41:46;5.90;;;2.20;;
77214;SDS011;66210;53.282;9.864;2023-02-28T08:44:18;3.58;;;2.30;;
77214;SDS011;66210;53.282;9.864;2023-02-28T08:46:45;3.95;;;2.05;;
77214;SDS011;66210;53.282;9.864;2023-02-28T08:49:11;4.57;;;2.47;;
77214;SDS011;66210;53.282;9.864;2023-02-28T08:51:57;5.38;;;2.53;;
77214;SDS011;66210;53.282;9.864;2023-02-28T08:54:37;3.92;;;2.20;;
77214;SDS011;66210;53.282;9.864;2023-02-28T08:57:04;5.60;;;2.83;;
77214;SDS011;66210;53.282;9.864;2023-02-28T08:59:30;7.13;;;2.78;;
77214;SDS011;66210;53.282;9.864;2023-02-28T09:01:58;4.75;;;2.70;;
77214;SDS011;66210;53.282;9.864;2023-02-28T09:04:25;7.45;;;2.70;;
77214;SDS011;66210;53.282;9.864;2023-02-28T09:06:52;3.40;;;2.13;;
77214;SDS011;66210;53.282;9.864;2023-02-28T09:09:18;3.65;;;2.05;;
77214;SDS011;66210;53.282;9.864;2023-02-28T09:11:45;2.85;;;1.80;;
77214;SDS011;66210;53.282;9.864;2023-02-28T09:14:12;5.35;;;2.20;;
77214;SDS011;66210;53.282;9.864;2023-02-28T09:16:38;3.45;;;1.95;;
77214;SDS011;66210;53.282;9.864;2023-02-28T09:19:05;5.15;;;2.50;;
77214;SDS011;66210;53.282;9.864;2023-02-28T09:21:32;4.60;;;2.30;;
77214;SDS011;66210;53.282;9.864;2023-02-28T09:23:59;4.00;;;1.80;;
77214;SDS011;66210;53.282;9.864;2023-02-28T09:26:26;2.28;;;1.15;;
77214;SDS011;66210;53.282;9.864;2023-02-28T09:29:08;1.15;;;1.05;;
77214;SDS011;66210;53.282;9.864;2023-02-28T09:31:35;1.33;;;0.90;;
77214;SDS011;66210;53.282;9.864;2023-02-28T09:34:01;2.72;;;1.10;;
77214;SDS011;66210;53.282;9.864;2023-02-28T09:36:30;1.50;;;1.20;;
77214;SDS011;66210;53.282;9.864;2023-02-28T09:39:10;2.75;;;1.50;;
77214;SDS011;66210;53.282;9.864;2023-02-28T09:41:39;0.82;;;0.80;;
77214;SDS011;66210;53.282;9.864;2023-02-28T09:44:33;2.22;;;1.33;;
77214;SDS011;66210;53.282;9.864;2023-02-28T09:47:05;1.27;;;1.10;;
77214;SDS011;66210;53.282;9.864;2023-02-28T09:52:19;1.60;;;1.23;;
77214;SDS011;66210;53.282;9.864;2023-02-28T09:54:50;2.72;;;1.50;;
77214;SDS011;66210;53.282;9.864;2023-02-28T09:59:54;2.35;;;1.60;;
77214;SDS011;66210;53.282;9.864;2023-02-28T10:05:29;2.42;;;1.30;;
77214;SDS011;66210;53.282;9.864;2023-02-28T10:08:05;4.53;;;1.83;;
77214;SDS011;66210;53.282;9.864;2023-02-28T10:10:53;3.20;;;1.40;;
77214;SDS011;66210;53.282;9.864;2023-02-28T10:13:28;5.15;;;1.63;;
77214;SDS011;66210;53.282;9.864;2023-02-28T10:16:44;8.20;;;1.85;;
77214;SDS011;66210;53.282;9.864;2023-02-28T10:18:59;2.33;;;1.35;;
77214;SDS011;66210;53.282;9.864;2023-02-28T10:21:34;3.03;;;1.30;;
77214;SDS011;66210;53.282;9.864;2023-02-28T10:24:11;2.92;;;1.30;;
77214;SDS011;66210;53.282;9.864;2023-02-28T10:26:47;1.30;;;1.15;;
77214;SDS011;66210;53.282;9.864;2023-02-28T10:29:14;5.05;;;1.50;;
77214;SDS011;66210;53.282;9.864;2023-02-28T10:31:41;4.68;;;1.45;;
77214;SDS011;66210;53.282;9.864;2023-02-28T10:34:10;3.53;;;1.67;;
77214;SDS011;66210;53.282;9.864;2023-02-28T10:36:40;2.85;;;1.60;;
77214;SDS011;66210;53.282;9.864;2023-02-28T10:42:01;1.80;;;1.40;;
77214;SDS011;66210;53.282;9.864;2023-02-28T10:44:28;2.83;;;1.60;;
77214;SDS011;66210;53.282;9.864;2023-02-28T10:46:54;2.13;;;1.05;;
77214;SDS011;66210;53.282;9.864;2023-02-28T10:49:23;1.90;;;1.48;;
77214;SDS011;66210;53.282;9.864;2023-02-28T10:51:57;2.00;;;1.58;;
77214;SDS011;66210;53.282;9.864;2023-02-28T10:54:30;3.28;;;1.40;;
77214;SDS011;66210;53.282;9.864;2023-02-28T10:57:17;2.60;;;1.73;;
77214;SDS011;66210;53.282;9.864;2023-02-28T10:59:46;1.92;;;1.20;;
77214;SDS011;66210;53.282;9.864;2023-02-28T11:02:38;2.67;;;1.73;;
77214;SDS011;66210;53.282;9.864;2023-02-28T11:08:16;2.10;;;1.35;;
77214;SDS011;66210;53.282;9.864;2023-02-28T11:10:46;1.73;;;1.20;;
77214;SDS011;66210;53.282;9.864;2023-02-28T11:13:17;1.80;;;1.27;;
77214;SDS011;66210;53.282;9.864;2023-02-28T11:15:54;1.83;;;1.40;;
77214;SDS011;66210;53.282;9.864;2023-02-28T11:18:30;1.67;;;1.10;;
77214;SDS011;66210;53.282;9.864;2023-02-28T11:21:24;1.95;;;1.35;;
77214;SDS011;66210;53.282;9.864;2023-02-28T11:24:01;3.05;;;1.60;;
77214;SDS011;66210;53.282;9.864;2023-02-28T11:26:44;1.67;;;1.20;;
77214;SDS011;66210;53.282;9.864;2023-02-28T11:29:26;2.92;;;1.50;;
77214;SDS011;66210;53.282;9.864;2023-02-28T11:34:43;2.40;;;1.15;;
77214;SDS011;66210;53.282;9.864;2023-02-28T11:37:12;1.77;;;1.23;;
77214;SDS011;66210;53.282;9.864;2023-02-28T11:39:42;2.42;;;1.35;;
77214;SDS011;66210;53.282;9.864;2023-02-28T11:48:02;4.43;;;1.50;;
77214;SDS011;66210;53.282;9.864;2023-02-28T12:02:20;1.85;;;1.38;;
77214;SDS011;66210;53.282;9.864;2023-02-28T12:05:24;2.22;;;1.50;;
77214;SDS011;66210;53.282;9.864;2023-02-28T12:11:13;2.13;;;1.38;;
77214;SDS011;66210;53.282;9.864;2023-02-28T12:13:55;2.05;;;1.48;;
77214;SDS011;66210;53.282;9.864;2023-02-28T12:16:53;2.17;;;1.55;;
77214;SDS011;66210;53.282;9.864;2023-02-28T12:19:48;3.03;;;1.70;;
77214;SDS011;66210;53.282;9.864;2023-02-28T12:22:40;2.10;;;1.30;;
77214;SDS011;66210;53.282;9.864;2023-02-28T12:25:24;2.33;;;1.35;;
77214;SDS011;66210;53.282;9.864;2023-02-28T12:28:15;5.90;;;1.50;;
77214;SDS011;66210;53.282;9.864;2023-02-28T12:30:52;2.38;;;1.58;;
77214;SDS011;66210;53.282;9.864;2023-02-28T12:33:24;1.92;;;1.35;;
77214;SDS011;66210;53.282;9.864;2023-02-28T12:35:56;3.15;;;1.33;;
77214;SDS011;66210;53.282;9.864;2023-02-28T12:38:44;2.25;;;1.80;;
77214;SDS011;66210;53.282;9.864;2023-02-28T12:41:18;2.58;;;1.33;;
77214;SDS011;66210;53.282;9.864;2023-02-28T12:43:54;1.65;;;1.30;;
77214;SDS011;66210;53.282;9.864;2023-02-28T12:46:34;2.50;;;1.55;;
77214;SDS011;66210;53.282;9.864;2023-02-28T12:49:08;3.85;;;1.60;;
77214;SDS011;66210;53.282;9.864;2023-02-28T12:51:43;1.77;;;1.40;;
77214;SDS011;66210;53.282;9.864;2023-02-28T12:59:51;2.00;;;1.50;;
77214;SDS011;66210;53.282;9.864;2023-02-28T13:05:25;2.80;;;1.55;;
77214;SDS011;66210;53.282;9.864;2023-02-28T13:11:17;4.50;;;1.50;;
77214;SDS011;66210;53.282;9.864;2023-02-28T13:13:56;2.72;;;1.38;;
77214;SDS011;66210;53.282;9.864;2023-02-28T13:16:24;6.18;;;1.80;;
77214;SDS011;66210;53.282;9.864;2023-02-28T13:18:51;3.00;;;1.70;;
77214;SDS011;66210;53.282;9.864;2023-02-28T13:21:23;2.03;;;1.58;;
77214;SDS011;66210;53.282;9.864;2023-02-28T13:34:32;1.52;;;1.10;;
77214;SDS011;66210;53.282;9.864;2023-02-28T13:37:30;2.28;;;1.05;;
77214;SDS011;66210;53.282;9.864;2023-02-28T13:39:53;2.28;;;1.35;;
77214;SDS011;66210;53.282;9.864;2023-02-28T13:55:44;1.88;;;1.17;;
77214;SDS011;66210;53.282;9.864;2023-02-28T13:58:22;1.77;;;1.23;;
77214;SDS011;66210;53.282;9.864;2023-02-28T14:04:39;2.90;;;1.23;;
77214;SDS011;66210;53.282;9.864;2023-02-28T14:07:04;1.90;;;1.27;;
77214;SDS011;66210;53.282;9.864;2023-02-28T14:09:36;1.40;;;1.27;;
77214;SDS011;66210;53.282;9.864;2023-02-28T14:18:00;1.60;;;1.33;;
77214;SDS011;66210;53.282;9.864;2023-02-28T14:20:31;1.70;;;1.08;;
77214;SDS011;66210;53.282;9.864;2023-02-28T14:23:17;1.90;;;1.23;;
77214;SDS011;66210;53.282;9.864;2023-02-28T14:37:52;1.65;;;1.35;;
77214;SDS011;66210;53.282;9.864;2023-02-28T14:40:21;1.52;;;1.30;;
77214;SDS011;66210;53.282;9.864;2023-02-28T14:42:59;7.45;;;1.38;;
77214;SDS011;66210;53.282;9.864;2023-02-28T14:51:21;1.60;;;1.35;;
77214;SDS011;66210;53.282;9.864;2023-02-28T14:53:52;1.98;;;1.33;;
77214;SDS011;66210;53.282;9.864;2023-02-28T14:59:22;2.83;;;1.73;;
77214;SDS011;66210;53.282;9.864;2023-02-28T15:01:52;2.30;;;1.67;;
77214;SDS011;66210;53.282;9.864;2023-02-28T15:04:33;3.45;;;1.70;;
77214;SDS011;66210;53.282;9.864;2023-02-28T15:07:12;4.88;;;2.30;;
77214;SDS011;66210;53.282;9.864;2023-02-28T15:09:41;2.28;;;1.48;;
77214;SDS011;66210;53.282;9.864;2023-02-28T15:12:07;2.63;;;1.52;;
77214;SDS011;66210;53.282;9.864;2023-02-28T15:14:42;4.30;;;1.70;;
77214;SDS011;66210;53.282;9.864;2023-02-28T15:17:11;3.08;;;1.75;;
77214;SDS011;66210;53.282;9.864;2023-02-28T15:19:48;4.03;;;1.42;;
77214;SDS011;66210;53.282;9.864;2023-02-28T15:22:19;2.97;;;1.70;;
77214;SDS011;66210;53.282;9.864;2023-02-28T15:24:55;4.05;;;1.75;;
77214;SDS011;66210;53.282;9.864;2023-02-28T15:27:23;4.55;;;1.83;;
77214;SDS011;66210;53.282;9.864;2023-02-28T15:29:54;4.60;;;1.73;;
77214;SDS011;66210;53.282;9.864;2023-02-28T15:32:28;5.15;;;1.77;;
77214;SDS011;66210;53.282;9.864;2023-02-28T15:34:57;3.63;;;1.60;;
77214;SDS011;66210;53.282;9.864;2023-02-28T15:37:29;2.88;;;1.60;;
77214;SDS011;66210;53.282;9.864;2023-02-28T15:43:04;2.20;;;1.45;;
77214;SDS011;66210;53.282;9.864;2023-02-28T15:45:34;2.10;;;1.23;;
77214;SDS011;66210;53.282;9.864;2023-02-28T15:48:05;1.83;;;1.40;;
77214;SDS011;66210;53.282;9.864;2023-02-28T15:50:40;3.38;;;1.70;;
77214;SDS011;66210;53.282;9.864;2023-02-28T15:53:17;2.95;;;1.67;;
77214;SDS011;66210;53.282;9.864;2023-02-28T15:55:52;2.75;;;1.58;;
77214;SDS011;66210;53.282;9.864;2023-02-28T15:58:21;4.78;;;1.60;;
77214;SDS011;66210;53.282;9.864;2023-02-28T16:03:53;2.75;;;1.50;;
77214;SDS011;66210;53.282;9.864;2023-02-28T16:06:38;3.25;;;1.40;;
77214;SDS011;66210;53.282;9.864;2023-02-28T16:09:06;3.75;;;1.38;;
77214;SDS011;66210;53.282;9.864;2023-02-28T16:11:38;2.53;;;1.50;;
77214;SDS011;66210;53.282;9.864;2023-02-28T16:14:15;3.42;;;1.63;;
77214;SDS011;66210;53.282;9.864;2023-02-28T16:16:45;2.28;;;1.63;;
77214;SDS011;66210;53.282;9.864;2023-02-28T16:21:41;2.13;;;1.40;;
77214;SDS011;66210;53.282;9.864;2023-02-28T16:24:07;2.65;;;1.15;;
77214;SDS011;66210;53.282;9.864;2023-02-28T16:26:34;1.50;;;0.98;;
77214;SDS011;66210;53.282;9.864;2023-02-28T16:29:03;1.35;;;1.17;;
77214;SDS011;66210;53.282;9.864;2023-02-28T16:31:30;2.88;;;1.35;;
77214;SDS011;66210;53.282;9.864;2023-02-28T16:34:01;5.20;;;1.15;;
77214;SDS011;66210;53.282;9.864;2023-02-28T16:36:31;1.15;;;1.10;;
77214;SDS011;66210;53.282;9.864;2023-02-28T16:38:57;1.05;;;0.95;;
77214;SDS011;66210;53.282;9.864;2023-02-28T16:41:25;1.77;;;1.02;;
77214;SDS011;66210;53.282;9.864;2023-02-28T16:43:53;1.33;;;1.08;;
77214;SDS011;66210;53.282;9.864;2023-02-28T16:46:30;3.15;;;1.30;;
77214;SDS011;66210;53.282;9.864;2023-02-28T16:49:00;1.80;;;1.17;;
77214;SDS011;66210;53.282;9.864;2023-02-28T16:51:27;1.63;;;1.00;;
77214;SDS011;66210;53.282;9.864;2023-02-28T16:53:54;1.95;;;1.25;;
77214;SDS011;66210;53.282;9.864;2023-02-28T16:56:22;7.55;;;1.27;;
77214;SDS011;66210;53.282;9.864;2023-02-28T16:58:51;3.38;;;1.45;;
77214;SDS011;66210;53.282;9.864;2023-02-28T17:01:20;2.10;;;1.20;;
77214;SDS011;66210;53.282;9.864;2023-02-28T17:03:48;1.95;;;1.42;;
77214;SDS011;66210;53.282;9.864;2023-02-28T17:06:22;2.60;;;1.38;;
77214;SDS011;66210;53.282;9.864;2023-02-28T17:08:50;8.48;;;2.05;;
77214;SDS011;66210;53.282;9.864;2023-02-28T17:11:17;6.53;;;1.75;;
77214;SDS011;66210;53.282;9.864;2023-02-28T17:13:45;6.90;;;1.48;;
77214;SDS011;66210;53.282;9.864;2023-02-28T17:16:23;2.55;;;1.27;;
77214;SDS011;66210;53.282;9.864;2023-02-28T17:18:54;1.67;;;1.10;;
77214;SDS011;66210;53.282;9.864;2023-02-28T17:21:24;1.52;;;1.20;;
77214;SDS011;66210;53.282;9.864;2023-02-28T17:23:50;2.55;;;1.20;;
77214;SDS011;66210;53.282;9.864;2023-02-28T17:26:17;1.00;;;0.90;;
77214;SDS011;66210;53.282;9.864;2023-02-28T17:28:51;2.13;;;1.30;;
77214;SDS011;66210;53.282;9.864;2023-02-28T17:31:18;2.70;;;1.05;;
77214;SDS011;66210;53.282;9.864;2023-02-28T17:33:45;1.83;;;1.40;;